Time;durP1;ratioP1;P1;durP2;ratioP2;P2;SDS_P1;SDS_P2;PMS_P1;PMS_P2;Temp;Humidity;BMP_temperature;BMP_pressure;BME280_temperature;BME280_humidity;BME280_pressure;Samples;Min_cycle;Max_cycle;Signal;HPM_P1;HPM_P2
2022/07/13 00:02:02;;;;;;;3.40;2.80;;;;;;;;;;10459711;28;20824;-84
2022/07/13 00:07:04;;;;;;;3.73;2.60;;;;;;;;;;10460498;28;20435;-81
2022/07/13 00:12:08;;;;;;;3.58;2.97;;;;;;;;;;10463011;28;20432;-82
2022/07/13 00:17:10;;;;;;;3.47;2.50;;;;;;;;;;10468047;28;20454;-83
2022/07/13 00:22:11;;;;;;;4.25;2.80;;;;;;;;;;10467288;28;20493;-83
2022/07/13 00:27:15;;;;;;;3.03;2.63;;;;;;;;;;10469871;28;20478;-83
2022/07/13 00:32:17;;;;;;;2.60;2.40;;;;;;;;;;10468916;28;20937;-82
2022/07/13 00:37:18;;;;;;;5.70;2.90;;;;;;;;;;10465712;28;20421;-83
2022/07/13 00:42:22;;;;;;;3.35;2.50;;;;;;;;;;10463003;28;20489;-84
2022/07/13 00:47:24;;;;;;;3.10;2.57;;;;;;;;;;10463006;28;20762;-83
2022/07/13 00:52:26;;;;;;;3.15;2.20;;;;;;;;;;10466117;28;20787;-84
2022/07/13 00:57:29;;;;;;;3.63;2.40;;;;;;;;;;10464505;28;20480;-84
2022/07/13 01:02:31;;;;;;;3.00;2.40;;;;;;;;;;10459739;28;20398;-84
2022/07/13 01:07:34;;;;;;;3.73;2.70;;;;;;;;;;10465210;28;20582;-83
2022/07/13 01:12:38;;;;;;;4.03;2.67;;;;;;;;;;10458575;28;20423;-82
2022/07/13 01:17:40;;;;;;;4.35;2.75;;;;;;;;;;10461661;28;20805;-80
2022/07/13 01:22:44;;;;;;;5.45;2.70;;;;;;;;;;10460599;28;20502;-83
2022/07/13 01:27:49;;;;;;;3.08;2.78;;;;;;;;;;10460844;28;20485;-84
2022/07/13 01:32:52;;;;;;;3.53;2.73;;;;;;;;;;10464385;28;20429;-85
2022/07/13 01:37:55;;;;;;;5.63;4.43;;;;;;;;;;10460337;28;20439;-84
2022/07/13 01:42:58;;;;;;;7.22;4.50;;;;;;;;;;10454754;28;20822;-84
2022/07/13 01:48:00;;;;;;;6.53;4.33;;;;;;;;;;10464464;28;21067;-83
2022/07/13 01:53:02;;;;;;;6.00;3.63;;;;;;;;;;10461662;28;20418;-82
2022/07/13 01:58:05;;;;;;;4.30;2.95;;;;;;;;;;10459995;28;20475;-84
2022/07/13 02:03:07;;;;;;;3.22;2.40;;;;;;;;;;10457462;28;20477;-84
2022/07/13 02:08:08;;;;;;;3.35;2.33;;;;;;;;;;10465219;28;20489;-83
2022/07/13 02:13:12;;;;;;;2.80;2.28;;;;;;;;;;10467741;28;20507;-84
2022/07/13 02:18:14;;;;;;;5.43;2.60;;;;;;;;;;10455322;28;20396;-84
2022/07/13 02:23:16;;;;;;;3.45;2.65;;;;;;;;;;10456689;28;20411;-83
2022/07/13 02:28:19;;;;;;;3.58;2.42;;;;;;;;;;10453598;28;20399;-83
2022/07/13 02:33:21;;;;;;;4.13;2.83;;;;;;;;;;10474242;28;20422;-84
2022/07/13 02:38:23;;;;;;;3.38;2.63;;;;;;;;;;10457118;28;20490;-84
2022/07/13 02:43:26;;;;;;;4.70;3.30;;;;;;;;;;10458747;28;20410;-84
2022/07/13 02:48:27;;;;;;;4.88;3.25;;;;;;;;;;10462200;28;20924;-83
2022/07/13 02:53:29;;;;;;;4.78;2.92;;;;;;;;;;10463411;28;20451;-84
2022/07/13 02:58:32;;;;;;;5.15;3.25;;;;;;;;;;10462520;28;20394;-83
2022/07/13 03:03:34;;;;;;;3.50;2.80;;;;;;;;;;10467769;28;20434;-83
2022/07/13 03:08:36;;;;;;;5.15;2.95;;;;;;;;;;10464144;28;20496;-83
2022/07/13 03:13:39;;;;;;;4.32;2.63;;;;;;;;;;10460628;28;20424;-84
2022/07/13 03:18:41;;;;;;;3.63;3.22;;;;;;;;;;10459462;28;20767;-84
2022/07/13 03:23:43;;;;;;;4.75;3.00;;;;;;;;;;10468748;28;20410;-83
2022/07/13 03:28:46;;;;;;;4.90;3.43;;;;;;;;;;10459881;28;21327;-83
2022/07/13 03:33:48;;;;;;;4.85;3.63;;;;;;;;;;10468216;28;20453;-83
2022/07/13 03:38:51;;;;;;;5.97;4.00;;;;;;;;;;10484073;28;20832;-83
2022/07/13 03:43:54;;;;;;;5.00;4.00;;;;;;;;;;10460574;28;20859;-82
2022/07/13 03:48:56;;;;;;;4.55;4.15;;;;;;;;;;10458084;28;20412;-83
2022/07/13 03:53:57;;;;;;;7.03;3.90;;;;;;;;;;10481288;28;20509;-83
2022/07/13 03:59:01;;;;;;;12.13;4.07;;;;;;;;;;10461833;28;20497;-83
2022/07/13 04:04:03;;;;;;;5.35;3.95;;;;;;;;;;10467300;28;20418;-83
2022/07/13 04:09:05;;;;;;;5.25;4.10;;;;;;;;;;10464053;28;20488;-83
2022/07/13 04:14:08;;;;;;;6.28;4.63;;;;;;;;;;10469361;28;20503;-83
2022/07/13 04:19:10;;;;;;;6.37;4.27;;;;;;;;;;10462053;28;20405;-83
2022/07/13 04:24:12;;;;;;;5.53;4.13;;;;;;;;;;10465724;28;20592;-82
2022/07/13 04:29:15;;;;;;;5.53;4.00;;;;;;;;;;10454930;28;20425;-83
2022/07/13 04:34:17;;;;;;;4.97;4.27;;;;;;;;;;10470233;28;20518;-82
2022/07/13 04:39:19;;;;;;;6.30;4.28;;;;;;;;;;10464814;28;20408;-84
2022/07/13 04:44:22;;;;;;;4.43;4.00;;;;;;;;;;10471522;28;20402;-82
2022/07/13 04:49:24;;;;;;;4.28;3.60;;;;;;;;;;10466885;28;20489;-82
2022/07/13 04:54:26;;;;;;;5.50;4.10;;;;;;;;;;10460721;28;20420;-84
2022/07/13 04:59:29;;;;;;;5.10;3.50;;;;;;;;;;10460577;28;20455;-83
2022/07/13 05:04:31;;;;;;;5.70;3.10;;;;;;;;;;10464303;28;20416;-82
2022/07/13 05:09:33;;;;;;;5.20;3.37;;;;;;;;;;10466833;28;20496;-83
2022/07/13 05:14:36;;;;;;;4.20;2.87;;;;;;;;;;10471939;28;20436;-83
2022/07/13 05:19:38;;;;;;;3.00;2.55;;;;;;;;;;10470936;28;20402;-83
2022/07/13 05:24:43;;;;;;;2.67;2.25;;;;;;;;;;10463381;28;20409;-83
2022/07/13 05:29:47;;;;;;;4.20;2.40;;;;;;;;;;10459360;28;20437;-83
2022/07/13 05:34:48;;;;;;;2.55;1.90;;;;;;;;;;10462819;28;21059;-83
2022/07/13 05:39:50;;;;;;;3.22;2.05;;;;;;;;;;10465150;28;20402;-84
2022/07/13 05:44:53;;;;;;;2.50;2.15;;;;;;;;;;10460490;28;20494;-83
2022/07/13 05:49:55;;;;;;;2.35;1.85;;;;;;;;;;10465429;28;20398;-82
2022/07/13 05:54:57;;;;;;;2.42;2.00;;;;;;;;;;10460632;28;20422;-84
2022/07/13 06:00:00;;;;;;;2.38;1.75;;;;;;;;;;10458936;28;20481;-83
2022/07/13 06:05:02;;;;;;;2.20;1.77;;;;;;;;;;10461976;28;20489;-82
2022/07/13 06:10:05;;;;;;;4.10;1.90;;;;;;;;;;10466143;28;20488;-82
2022/07/13 06:15:09;;;;;;;3.13;2.00;;;;;;;;;;10453373;28;20842;-83
2022/07/13 06:20:12;;;;;;;3.53;1.90;;;;;;;;;;10465825;28;20433;-82
2022/07/13 06:25:14;;;;;;;2.57;1.83;;;;;;;;;;10451298;28;20413;-82
2022/07/13 06:30:17;;;;;;;2.47;1.80;;;;;;;;;;10458669;28;20486;-84
2022/07/13 06:35:18;;;;;;;3.22;1.60;;;;;;;;;;10461852;28;20425;-83
2022/07/13 06:40:20;;;;;;;1.50;1.40;;;;;;;;;;10463438;28;20412;-84
2022/07/13 06:45:24;;;;;;;1.80;1.70;;;;;;;;;;10469287;28;20472;-84
2022/07/13 06:50:26;;;;;;;2.40;1.95;;;;;;;;;;10462312;28;20425;-82
2022/07/13 06:55:27;;;;;;;3.88;1.70;;;;;;;;;;10474525;28;20422;-83
2022/07/13 07:00:31;;;;;;;2.70;1.70;;;;;;;;;;10485967;28;20445;-84
2022/07/13 07:05:33;;;;;;;2.05;1.60;;;;;;;;;;10468661;28;20463;-84
2022/07/13 07:10:35;;;;;;;2.38;1.70;;;;;;;;;;10469652;28;20463;-85
2022/07/13 07:15:39;;;;;;;2.70;1.50;;;;;;;;;;10453898;28;20521;-83
2022/07/13 07:20:41;;;;;;;1.70;1.40;;;;;;;;;;10465759;28;20463;-83
2022/07/13 07:25:43;;;;;;;1.75;1.35;;;;;;;;;;10467053;28;20426;-84
2022/07/13 07:30:46;;;;;;;3.20;1.45;;;;;;;;;;10456494;28;20410;-84
2022/07/13 07:35:48;;;;;;;2.70;1.60;;;;;;;;;;10457136;28;20517;-84
2022/07/13 07:40:50;;;;;;;3.00;1.40;;;;;;;;;;10462499;28;20451;-84
2022/07/13 07:45:54;;;;;;;2.45;1.50;;;;;;;;;;10475994;28;20489;-83
2022/07/13 07:50:56;;;;;;;2.00;1.42;;;;;;;;;;10474031;28;20471;-84
2022/07/13 07:55:58;;;;;;;2.85;1.70;;;;;;;;;;10487529;28;20463;-83
2022/07/13 08:01:01;;;;;;;2.10;1.60;;;;;;;;;;10491495;28;20483;-84
2022/07/13 08:06:03;;;;;;;1.57;1.47;;;;;;;;;;10478351;28;20762;-84
2022/07/13 08:11:06;;;;;;;4.73;1.90;;;;;;;;;;10476415;28;20469;-84
2022/07/13 08:16:10;;;;;;;4.20;1.90;;;;;;;;;;10494094;28;20428;-83
2022/07/13 08:21:14;;;;;;;3.10;1.95;;;;;;;;;;10480905;28;20528;-83
2022/07/13 08:26:16;;;;;;;1.98;1.80;;;;;;;;;;10470950;28;20471;-84
2022/07/13 08:31:21;;;;;;;2.63;1.95;;;;;;;;;;10464558;28;20485;-83
2022/07/13 08:41:44;;;;;;;3.72;1.80;;;;;;;;;;10459319;28;20390;-84
2022/07/13 08:46:48;;;;;;;3.28;1.67;;;;;;;;;;10456443;28;20446;-83
2022/07/13 08:51:51;;;;;;;3.20;1.80;;;;;;;;;;10474464;28;20754;-83
2022/07/13 08:56:53;;;;;;;2.77;1.80;;;;;;;;;;10458432;28;20402;-84
2022/07/13 09:01:57;;;;;;;2.00;1.67;;;;;;;;;;10475707;28;20406;-83
2022/07/13 09:06:59;;;;;;;3.63;1.80;;;;;;;;;;10460709;28;20450;-83
2022/07/13 09:12:11;;;;;;;2.08;1.63;;;;;;;;;;10467221;28;20428;-84
2022/07/13 09:17:37;;;;;;;2.57;1.60;;;;;;;;;;10451956;28;21889;-84
2022/07/13 09:22:47;;;;;;;2.27;1.50;;;;;;;;;;10461187;28;20445;-84
2022/07/13 09:27:50;;;;;;;2.65;1.55;;;;;;;;;;10459970;28;20440;-83
2022/07/13 09:32:55;;;;;;;2.30;1.77;;;;;;;;;;10455536;28;21048;-85
2022/07/13 09:37:58;;;;;;;3.53;1.87;;;;;;;;;;10473496;28;20423;-85
2022/07/13 09:48:21;;;;;;;2.10;1.70;;;;;;;;;;10462220;28;20863;-84
2022/07/13 09:53:26;;;;;;;1.95;1.70;;;;;;;;;;10459535;28;20422;-85
2022/07/13 09:58:31;;;;;;;1.80;1.50;;;;;;;;;;10460479;28;20419;-85
2022/07/13 10:03:36;;;;;;;2.30;1.60;;;;;;;;;;10466297;28;20429;-85
2022/07/13 10:08:40;;;;;;;2.25;1.83;;;;;;;;;;10470996;28;20422;-85
2022/07/13 10:13:44;;;;;;;2.90;1.80;;;;;;;;;;10464442;28;20421;-87
2022/07/13 10:18:51;;;;;;;2.10;1.83;;;;;;;;;;10453897;28;20404;-86
2022/07/13 10:23:54;;;;;;;2.28;2.10;;;;;;;;;;10452696;28;20433;-85
2022/07/13 10:29:05;;;;;;;2.30;2.03;;;;;;;;;;10451283;28;20443;-86
2022/07/13 10:34:11;;;;;;;2.40;1.98;;;;;;;;;;10465226;28;20416;-89
2022/07/13 10:39:13;;;;;;;2.83;2.10;;;;;;;;;;10466581;28;20963;-88
2022/07/13 10:44:35;;;;;;;2.45;2.25;;;;;;;;;;10468488;28;20408;-84
2022/07/13 10:49:45;;;;;;;3.03;2.13;;;;;;;;;;10468424;28;20401;-85
2022/07/13 10:55:24;;;;;;;3.10;2.17;;;;;;;;;;10460659;28;20426;-85
2022/07/13 11:00:43;;;;;;;2.10;1.90;;;;;;;;;;10452170;28;20790;-86
2022/07/13 11:06:09;;;;;;;2.40;2.15;;;;;;;;;;10463223;28;20429;-86
2022/07/13 11:11:13;;;;;;;1.95;1.85;;;;;;;;;;10468044;28;20656;-85
2022/07/13 11:16:36;;;;;;;2.90;1.92;;;;;;;;;;10456222;28;20790;-85
2022/07/13 11:27:17;;;;;;;2.33;1.70;;;;;;;;;;10533853;27;20407;-85
2022/07/13 11:32:22;;;;;;;2.23;1.90;;;;;;;;;;10528111;28;20419;-81
2022/07/13 11:37:26;;;;;;;1.92;1.70;;;;;;;;;;10510253;27;20411;-86
2022/07/13 11:42:32;;;;;;;3.88;2.20;;;;;;;;;;10506597;27;20411;-86
2022/07/13 11:47:34;;;;;;;2.03;1.93;;;;;;;;;;10504146;28;20413;-86
2022/07/13 11:52:36;;;;;;;2.93;2.40;;;;;;;;;;10510834;27;20415;-83
2022/07/13 11:57:45;;;;;;;3.10;2.20;;;;;;;;;;10514640;28;20875;-82
2022/07/13 12:02:52;;;;;;;2.42;2.10;;;;;;;;;;10507535;28;20419;-83
2022/07/13 12:08:06;;;;;;;2.40;2.20;;;;;;;;;;10520115;28;20474;-83
2022/07/13 12:13:10;;;;;;;3.90;2.27;;;;;;;;;;10516068;28;20772;-82
2022/07/13 12:18:14;;;;;;;2.90;2.20;;;;;;;;;;10517429;28;20405;-83
2022/07/13 12:23:17;;;;;;;2.47;2.20;;;;;;;;;;10524648;28;20417;-83
2022/07/13 12:28:30;;;;;;;2.20;2.00;;;;;;;;;;10551832;28;20484;-82
2022/07/13 12:33:43;;;;;;;2.55;2.30;;;;;;;;;;10556307;28;20504;-83
2022/07/13 12:38:59;;;;;;;4.07;2.30;;;;;;;;;;10533660;28;20760;-82
2022/07/13 12:44:05;;;;;;;2.33;2.13;;;;;;;;;;10525642;28;20918;-83
2022/07/13 12:49:08;;;;;;;2.58;2.25;;;;;;;;;;10527765;28;20723;-82
2022/07/13 12:54:12;;;;;;;3.42;2.20;;;;;;;;;;10531171;28;20489;-82
2022/07/13 12:59:18;;;;;;;3.40;2.07;;;;;;;;;;10531001;28;20394;-82
2022/07/13 13:04:20;;;;;;;2.67;2.03;;;;;;;;;;10523719;28;20531;-83
2022/07/13 13:09:23;;;;;;;2.15;1.95;;;;;;;;;;10524378;28;20415;-82
2022/07/13 13:14:27;;;;;;;2.20;2.00;;;;;;;;;;10533529;28;20826;-83
2022/07/13 13:19:29;;;;;;;2.03;1.80;;;;;;;;;;10524797;28;20838;-83
2022/07/13 13:24:33;;;;;;;2.15;1.90;;;;;;;;;;10526936;28;20479;-83
2022/07/13 13:34:57;;;;;;;2.15;1.73;;;;;;;;;;10524812;28;20387;-83
2022/07/13 13:40:00;;;;;;;2.43;1.80;;;;;;;;;;10524445;28;20407;-83
2022/07/13 13:45:04;;;;;;;1.87;1.77;;;;;;;;;;10518471;28;20439;-83
2022/07/13 13:50:06;;;;;;;2.80;1.80;;;;;;;;;;10536931;28;20394;-83
2022/07/13 13:55:09;;;;;;;1.70;1.60;;;;;;;;;;10543455;28;20478;-83
2022/07/13 14:00:13;;;;;;;2.13;1.90;;;;;;;;;;10543028;28;20748;-83
2022/07/13 14:05:15;;;;;;;1.92;1.50;;;;;;;;;;10542657;28;21007;-83
2022/07/13 14:10:16;;;;;;;3.38;1.75;;;;;;;;;;10540030;28;20410;-83
2022/07/13 14:15:20;;;;;;;1.97;1.60;;;;;;;;;;10537625;28;20410;-89
2022/07/13 14:20:23;;;;;;;3.30;1.63;;;;;;;;;;10529432;28;21091;-86
2022/07/13 14:25:25;;;;;;;2.87;1.50;;;;;;;;;;10526055;28;20457;-84
2022/07/13 14:30:30;;;;;;;3.13;1.73;;;;;;;;;;10541991;28;20426;-86
2022/07/13 14:35:32;;;;;;;1.73;1.60;;;;;;;;;;10523219;28;20406;-86
2022/07/13 14:40:34;;;;;;;1.52;1.40;;;;;;;;;;10524056;28;20481;-84
2022/07/13 14:45:38;;;;;;;1.80;1.63;;;;;;;;;;10514211;28;20427;-86
2022/07/13 14:50:40;;;;;;;2.53;1.70;;;;;;;;;;10517532;28;20418;-86
2022/07/13 14:55:42;;;;;;;2.25;1.42;;;;;;;;;;10527430;28;20481;-85
2022/07/13 15:00:46;;;;;;;2.00;1.70;;;;;;;;;;10541246;28;20402;-86
2022/07/13 15:05:48;;;;;;;1.80;1.70;;;;;;;;;;10514449;28;20420;-85
2022/07/13 15:10:50;;;;;;;1.90;1.70;;;;;;;;;;10526859;28;20410;-86
2022/07/13 15:15:54;;;;;;;6.37;2.20;;;;;;;;;;10534560;28;20626;-85
2022/07/13 15:20:56;;;;;;;2.17;1.50;;;;;;;;;;10525171;28;20784;-87
2022/07/13 15:25:58;;;;;;;5.65;1.92;;;;;;;;;;10541336;28;20937;-86
2022/07/13 15:31:01;;;;;;;3.47;1.50;;;;;;;;;;10546185;28;20789;-85
2022/07/13 15:36:04;;;;;;;1.80;1.60;;;;;;;;;;10524429;28;20750;-84
2022/07/13 15:41:25;;;;;;;1.70;1.60;;;;;;;;;;10541338;28;20475;-86
2022/07/13 15:46:32;;;;;;;1.50;1.40;;;;;;;;;;10504308;28;20548;-86
2022/07/13 15:51:35;;;;;;;1.70;1.60;;;;;;;;;;10505493;28;20432;-86
2022/07/13 15:56:37;;;;;;;1.70;1.60;;;;;;;;;;10510387;28;20812;-86
2022/07/13 16:01:40;;;;;;;2.00;1.60;;;;;;;;;;10506494;28;20415;-86
2022/07/13 16:06:43;;;;;;;1.85;1.70;;;;;;;;;;10511326;28;20443;-86
2022/07/13 16:11:45;;;;;;;3.00;2.10;;;;;;;;;;10519436;28;20404;-86
2022/07/13 16:16:48;;;;;;;2.22;1.70;;;;;;;;;;10530646;28;20737;-87
2022/07/13 16:21:56;;;;;;;2.38;1.50;;;;;;;;;;10520144;28;20473;-87
2022/07/13 16:26:58;;;;;;;2.28;1.60;;;;;;;;;;10516125;28;20426;-86
2022/07/13 16:32:02;;;;;;;3.45;2.17;;;;;;;;;;10505273;28;21320;-86
2022/07/13 16:37:05;;;;;;;4.07;1.80;;;;;;;;;;10509203;28;20950;-87
2022/07/13 16:42:08;;;;;;;2.42;1.88;;;;;;;;;;10508258;28;20448;-86
2022/07/13 16:47:11;;;;;;;2.00;1.75;;;;;;;;;;10507930;27;20430;-86
2022/07/13 16:52:17;;;;;;;5.78;2.05;;;;;;;;;;10505560;28;21100;-86
2022/07/13 16:57:20;;;;;;;2.85;2.10;;;;;;;;;;10507784;28;20429;-88
2022/07/13 17:02:26;;;;;;;3.57;2.20;;;;;;;;;;10507899;28;21341;-85
2022/07/13 17:07:28;;;;;;;1.90;1.80;;;;;;;;;;10507262;28;20420;-86
2022/07/13 17:12:30;;;;;;;2.92;1.88;;;;;;;;;;10507254;28;20417;-85
2022/07/13 17:17:34;;;;;;;3.40;2.00;;;;;;;;;;10521936;28;20908;-87
2022/07/13 17:22:36;;;;;;;3.93;2.10;;;;;;;;;;10545636;28;20914;-84
2022/07/13 17:27:38;;;;;;;2.80;1.30;;;;;;;;;;10541829;28;20407;-84
2022/07/13 17:32:41;;;;;;;2.40;1.30;;;;;;;;;;10522043;28;20419;-84
2022/07/13 17:37:43;;;;;;;2.40;1.20;;;;;;;;;;10515092;28;20432;-84
2022/07/13 17:42:45;;;;;;;4.32;1.30;;;;;;;;;;10513037;28;21598;-81
2022/07/13 17:47:49;;;;;;;2.00;1.15;;;;;;;;;;10502290;28;20862;-85
2022/07/13 17:52:52;;;;;;;1.90;1.00;;;;;;;;;;10511206;28;20911;-85
2022/07/13 17:57:54;;;;;;;2.87;1.20;;;;;;;;;;10523917;28;20772;-84
2022/07/13 18:02:58;;;;;;;3.47;1.17;;;;;;;;;;10520206;28;20417;-84
2022/07/13 18:08:00;;;;;;;3.17;1.00;;;;;;;;;;10517502;28;20438;-86
2022/07/13 18:13:04;;;;;;;2.85;1.55;;;;;;;;;;10521885;28;21050;-83
2022/07/13 18:18:07;;;;;;;1.92;0.88;;;;;;;;;;10516283;28;20913;-84
2022/07/13 18:28:29;;;;;;;3.47;1.23;;;;;;;;;;10528855;28;20513;-79
2022/07/13 18:33:33;;;;;;;3.07;1.17;;;;;;;;;;10531643;28;20493;-86
2022/07/13 18:38:35;;;;;;;3.17;1.30;;;;;;;;;;10530563;27;20453;-86
2022/07/13 18:43:37;;;;;;;4.40;1.33;;;;;;;;;;10517370;28;20916;-86
2022/07/13 18:48:40;;;;;;;3.40;1.55;;;;;;;;;;10523146;28;20513;-86
2022/07/13 18:53:42;;;;;;;3.00;1.00;;;;;;;;;;10514654;28;20417;-85
2022/07/13 18:58:44;;;;;;;3.10;1.23;;;;;;;;;;10528616;27;20428;-86
2022/07/13 19:03:47;;;;;;;2.30;0.90;;;;;;;;;;10523616;28;20418;-87
2022/07/13 19:08:49;;;;;;;2.20;1.20;;;;;;;;;;10534867;28;21349;-86
2022/07/13 19:13:51;;;;;;;3.35;1.10;;;;;;;;;;10541911;28;20800;-87
2022/07/13 19:18:54;;;;;;;2.17;1.40;;;;;;;;;;10530030;27;20435;-88
2022/07/13 19:23:59;;;;;;;4.87;1.80;;;;;;;;;;10531101;28;20446;-86
2022/07/13 19:29:01;;;;;;;3.13;1.27;;;;;;;;;;10540716;28;20428;-88
2022/07/13 19:34:05;;;;;;;2.97;1.40;;;;;;;;;;10551857;28;20965;-86
2022/07/13 19:39:06;;;;;;;4.50;1.88;;;;;;;;;;10530664;28;20511;-87
2022/07/13 19:44:08;;;;;;;5.23;1.80;;;;;;;;;;10517878;28;20422;-84
2022/07/13 19:49:11;;;;;;;6.05;1.80;;;;;;;;;;10525499;28;21062;-84
2022/07/13 19:54:14;;;;;;;6.18;1.60;;;;;;;;;;10515917;28;20770;-86
2022/07/13 19:59:16;;;;;;;3.60;1.60;;;;;;;;;;10517585;28;20391;-86
2022/07/13 20:04:19;;;;;;;4.10;1.58;;;;;;;;;;10511708;28;20501;-85
2022/07/13 20:09:21;;;;;;;3.05;1.60;;;;;;;;;;10531496;28;20501;-86
2022/07/13 20:14:23;;;;;;;3.60;1.53;;;;;;;;;;10547433;28;20413;-84
2022/07/13 20:19:26;;;;;;;3.15;1.52;;;;;;;;;;10540463;27;20440;-86
2022/07/13 20:24:28;;;;;;;2.22;1.40;;;;;;;;;;10541978;28;20519;-86
2022/07/13 20:29:30;;;;;;;2.15;1.50;;;;;;;;;;10524678;27;20476;-87
2022/07/13 20:34:35;;;;;;;3.30;1.52;;;;;;;;;;10518220;28;20410;-87
2022/07/13 20:39:37;;;;;;;4.47;1.70;;;;;;;;;;10513883;28;20925;-87
2022/07/13 20:44:38;;;;;;;5.20;1.98;;;;;;;;;;10513496;28;20410;-86
2022/07/13 20:49:42;;;;;;;5.33;1.67;;;;;;;;;;10516937;27;21172;-85
2022/07/13 20:54:43;;;;;;;2.33;1.70;;;;;;;;;;10509642;28;20407;-86
2022/07/13 20:59:45;;;;;;;2.10;1.58;;;;;;;;;;10508235;28;20853;-86
2022/07/13 21:04:49;;;;;;;2.42;2.00;;;;;;;;;;10516347;28;20413;-86
2022/07/13 21:09:50;;;;;;;3.50;1.77;;;;;;;;;;10509771;27;20506;-86
2022/07/13 21:14:53;;;;;;;5.30;2.20;;;;;;;;;;10511933;28;20444;-86
2022/07/13 21:19:56;;;;;;;5.72;2.00;;;;;;;;;;10508768;28;20425;-85
2022/07/13 21:24:58;;;;;;;5.03;2.20;;;;;;;;;;10516815;28;20459;-86
2022/07/13 21:30:00;;;;;;;3.88;2.20;;;;;;;;;;10517832;28;20476;-86
2022/07/13 21:35:04;;;;;;;4.30;2.10;;;;;;;;;;10516003;28;20389;-85
2022/07/13 21:40:07;;;;;;;3.78;2.40;;;;;;;;;;10520429;28;20502;-86
2022/07/13 21:45:10;;;;;;;5.72;2.35;;;;;;;;;;10529660;28;20908;-85
2022/07/13 21:50:13;;;;;;;3.33;2.17;;;;;;;;;;10519788;28;20890;-86
2022/07/13 21:55:15;;;;;;;4.70;2.30;;;;;;;;;;10511730;28;20415;-86
2022/07/13 22:00:17;;;;;;;2.20;1.92;;;;;;;;;;10514741;28;20496;-85
2022/07/13 22:05:25;;;;;;;3.13;2.22;;;;;;;;;;10509042;28;20909;-86
2022/07/13 22:11:04;;;;;;;6.10;2.47;;;;;;;;;;10524790;28;20394;-86
2022/07/13 22:16:43;;;;;;;4.35;2.33;;;;;;;;;;10532163;28;21197;-85
2022/07/13 22:22:23;;;;;;;3.47;2.17;;;;;;;;;;10529756;28;20495;-86
2022/07/13 22:28:02;;;;;;;2.30;2.10;;;;;;;;;;10528099;28;20443;-86
2022/07/13 22:33:41;;;;;;;3.70;2.20;;;;;;;;;;10530613;28;20491;-85
2022/07/13 22:39:20;;;;;;;2.92;2.00;;;;;;;;;;10532351;28;20830;-86
2022/07/13 22:44:59;;;;;;;3.47;2.27;;;;;;;;;;10534966;28;20427;-86
2022/07/13 22:50:39;;;;;;;5.35;2.50;;;;;;;;;;10533032;28;20499;-87
2022/07/13 22:56:17;;;;;;;4.50;2.30;;;;;;;;;;10523062;28;20398;-86
2022/07/13 23:01:57;;;;;;;4.40;2.30;;;;;;;;;;10521338;28;20855;-86
2022/07/13 23:07:35;;;;;;;5.32;2.63;;;;;;;;;;10518714;28;20851;-86
2022/07/13 23:13:15;;;;;;;6.68;3.33;;;;;;;;;;10521749;28;20774;-85
2022/07/13 23:18:54;;;;;;;5.03;3.63;;;;;;;;;;10529544;28;20457;-86
2022/07/13 23:24:34;;;;;;;5.72;3.78;;;;;;;;;;10520504;28;20421;-85
2022/07/13 23:29:35;;;;;;;5.18;4.10;;;;;;;;;;10523409;28;20414;-84
2022/07/13 23:34:39;;;;;;;6.90;4.60;;;;;;;;;;10526508;28;20485;-85
2022/07/13 23:39:41;;;;;;;7.65;4.82;;;;;;;;;;10527916;28;20479;-85
2022/07/13 23:44:44;;;;;;;5.00;4.47;;;;;;;;;;10531020;28;20411;-84
2022/07/13 23:49:48;;;;;;;5.30;3.90;;;;;;;;;;10528594;28;20393;-85
2022/07/13 23:54:50;;;;;;;4.70;3.80;;;;;;;;;;10529885;28;20402;-84
2022/07/13 23:59:52;;;;;;;5.50;2.92;;;;;;;;;;10524631;28;20404;-85
